sensor_id;sensor_type;location;lat;lon;timestamp;temperature;humidity
4922;DHT22;16625;53.624;10.106;2023-04-29T00:00:55;8.40;99.90
4922;DHT22;16625;53.624;10.106;2023-04-29T00:03:22;8.40;99.90
4922;DHT22;16625;53.624;10.106;2023-04-29T00:05:51;8.40;99.90
4922;DHT22;16625;53.624;10.106;2023-04-29T00:08:20;8.30;99.90
4922;DHT22;16625;53.624;10.106;2023-04-29T00:10:48;8.30;99.90
4922;DHT22;16625;53.624;10.106;2023-04-29T00:13:47;8.30;99.90
4922;DHT22;16625;53.624;10.106;2023-04-29T00:16:15;8.30;99.90
4922;DHT22;16625;53.624;10.106;2023-04-29T00:18:48;8.30;99.90
4922;DHT22;16625;53.624;10.106;2023-04-29T00:21:17;8.40;99.90
4922;DHT22;16625;53.624;10.106;2023-04-29T00:23:52;8.20;99.90
4922;DHT22;16625;53.624;10.106;2023-04-29T00:26:26;8.30;99.90
4922;DHT22;16625;53.624;10.106;2023-04-29T00:28:55;8.40;99.90
4922;DHT22;16625;53.624;10.106;2023-04-29T00:31:27;8.30;99.90
4922;DHT22;16625;53.624;10.106;2023-04-29T00:34:01;8.30;99.90
4922;DHT22;16625;53.624;10.106;2023-04-29T00:36:31;8.30;99.90
4922;DHT22;16625;53.624;10.106;2023-04-29T00:39:04;8.30;99.90
4922;DHT22;16625;53.624;10.106;2023-04-29T00:41:34;8.20;99.90
4922;DHT22;16625;53.624;10.106;2023-04-29T00:44:03;8.50;99.90
4922;DHT22;16625;53.624;10.106;2023-04-29T00:46:33;8.30;99.90
4922;DHT22;16625;53.624;10.106;2023-04-29T00:49:15;8.10;99.90
4922;DHT22;16625;53.624;10.106;2023-04-29T00:51:44;8.20;99.90
4922;DHT22;16625;53.624;10.106;2023-04-29T00:54:21;8.20;99.90
4922;DHT22;16625;53.624;10.106;2023-04-29T00:56:55;8.20;99.90
4922;DHT22;16625;53.624;10.106;2023-04-29T00:59:26;8.20;99.90
4922;DHT22;16625;53.624;10.106;2023-04-29T01:01:58;8.10;99.90
4922;DHT22;16625;53.624;10.106;2023-04-29T01:04:25;8.10;99.90
4922;DHT22;16625;53.624;10.106;2023-04-29T01:07:00;8.20;99.90
4922;DHT22;16625;53.624;10.106;2023-04-29T01:09:46;8.10;99.90
4922;DHT22;16625;53.624;10.106;2023-04-29T01:12:20;8.10;99.90
4922;DHT22;16625;53.624;10.106;2023-04-29T01:15:05;8.20;99.90
4922;DHT22;16625;53.624;10.106;2023-04-29T01:41:41;7.90;99.90
4922;DHT22;16625;53.624;10.106;2023-04-29T01:44:17;7.90;99.90
4922;DHT22;16625;53.624;10.106;2023-04-29T01:47:23;7.80;99.90
4922;DHT22;16625;53.624;10.106;2023-04-29T01:49:58;7.80;99.90
4922;DHT22;16625;53.624;10.106;2023-04-29T01:52:28;7.80;99.90
4922;DHT22;16625;53.624;10.106;2023-04-29T01:54:59;7.90;99.90
4922;DHT22;16625;53.624;10.106;2023-04-29T01:57:30;7.80;99.90
4922;DHT22;16625;53.624;10.106;2023-04-29T02:00:05;7.90;99.90
4922;DHT22;16625;53.624;10.106;2023-04-29T02:02:43;7.80;99.90
4922;DHT22;16625;53.624;10.106;2023-04-29T02:05:50;7.80;99.90
4922;DHT22;16625;53.624;10.106;2023-04-29T02:08:27;7.80;99.90
4922;DHT22;16625;53.624;10.106;2023-04-29T02:10:57;7.80;99.90
4922;DHT22;16625;53.624;10.106;2023-04-29T02:13:30;7.90;99.90
4922;DHT22;16625;53.624;10.106;2023-04-29T02:16:08;7.80;99.90
4922;DHT22;16625;53.624;10.106;2023-04-29T02:18:37;7.70;99.90
4922;DHT22;16625;53.624;10.106;2023-04-29T02:21:11;7.90;99.90
4922;DHT22;16625;53.624;10.106;2023-04-29T02:23:40;7.80;99.90
4922;DHT22;16625;53.624;10.106;2023-04-29T02:26:09;7.80;99.90
4922;DHT22;16625;53.624;10.106;2023-04-29T02:32:38;7.80;99.90
4922;DHT22;16625;53.624;10.106;2023-04-29T02:35:08;7.80;99.90
4922;DHT22;16625;53.624;10.106;2023-04-29T02:37:35;7.80;99.90
4922;DHT22;16625;53.624;10.106;2023-04-29T02:40:06;7.70;99.90
4922;DHT22;16625;53.624;10.106;2023-04-29T02:42:34;7.70;99.90
4922;DHT22;16625;53.624;10.106;2023-04-29T02:45:06;7.70;99.90
4922;DHT22;16625;53.624;10.106;2023-04-29T02:47:40;7.70;99.90
4922;DHT22;16625;53.624;10.106;2023-04-29T02:50:13;7.70;99.90
4922;DHT22;16625;53.624;10.106;2023-04-29T02:53:03;7.70;99.90
4922;DHT22;16625;53.624;10.106;2023-04-29T02:55:44;7.70;99.90
4922;DHT22;16625;53.624;10.106;2023-04-29T02:58:25;7.50;99.90
4922;DHT22;16625;53.624;10.106;2023-04-29T03:00:58;7.60;99.90
4922;DHT22;16625;53.624;10.106;2023-04-29T03:03:38;7.60;99.90
4922;DHT22;16625;53.624;10.106;2023-04-29T03:06:16;7.60;99.90
4922;DHT22;16625;53.624;10.106;2023-04-29T03:09:12;7.60;99.90
4922;DHT22;16625;53.624;10.106;2023-04-29T03:12:06;7.60;99.90
4922;DHT22;16625;53.624;10.106;2023-04-29T03:14:40;7.60;99.90
4922;DHT22;16625;53.624;10.106;2023-04-29T03:17:46;7.50;99.90
4922;DHT22;16625;53.624;10.106;2023-04-29T03:20:28;7.50;99.90
4922;DHT22;16625;53.624;10.106;2023-04-29T03:22:59;7.40;99.90
4922;DHT22;16625;53.624;10.106;2023-04-29T03:26:23;7.40;99.90
4922;DHT22;16625;53.624;10.106;2023-04-29T03:29:02;7.30;99.90
4922;DHT22;16625;53.624;10.106;2023-04-29T03:31:32;7.40;99.90
4922;DHT22;16625;53.624;10.106;2023-04-29T03:34:08;7.40;99.90
4922;DHT22;16625;53.624;10.106;2023-04-29T03:36:46;7.50;99.90
4922;DHT22;16625;53.624;10.106;2023-04-29T03:39:27;7.50;99.90
4922;DHT22;16625;53.624;10.106;2023-04-29T03:42:05;7.40;99.90
4922;DHT22;16625;53.624;10.106;2023-04-29T03:44:34;7.30;99.90
4922;DHT22;16625;53.624;10.106;2023-04-29T03:47:09;7.30;99.90
4922;DHT22;16625;53.624;10.106;2023-04-29T05:08:39;7.30;99.90
4922;DHT22;16625;53.624;10.106;2023-04-29T05:11:22;7.30;99.90
4922;DHT22;16625;53.624;10.106;2023-04-29T05:13:58;7.30;99.90
4922;DHT22;16625;53.624;10.106;2023-04-29T05:16:41;7.30;99.90
4922;DHT22;16625;53.624;10.106;2023-04-29T05:19:25;7.30;99.90
4922;DHT22;16625;53.624;10.106;2023-04-29T05:22:24;7.30;99.90
4922;DHT22;16625;53.624;10.106;2023-04-29T05:31:42;7.30;99.90
4922;DHT22;16625;53.624;10.106;2023-04-29T05:34:18;7.30;99.90
4922;DHT22;16625;53.624;10.106;2023-04-29T05:36:53;7.30;99.90
4922;DHT22;16625;53.624;10.106;2023-04-29T05:42:39;7.40;99.90
4922;DHT22;16625;53.624;10.106;2023-04-29T05:45:53;7.30;99.90
4922;DHT22;16625;53.624;10.106;2023-04-29T05:48:32;7.60;99.90
4922;DHT22;16625;53.624;10.106;2023-04-29T05:51:01;7.60;99.90
4922;DHT22;16625;53.624;10.106;2023-04-29T05:53:50;7.60;99.90
4922;DHT22;16625;53.624;10.106;2023-04-29T05:56:26;7.60;99.90
4922;DHT22;16625;53.624;10.106;2023-04-29T05:58:58;7.70;99.90
4922;DHT22;16625;53.624;10.106;2023-04-29T06:01:31;7.80;99.90
4922;DHT22;16625;53.624;10.106;2023-04-29T06:04:02;8.00;99.90
4922;DHT22;16625;53.624;10.106;2023-04-29T06:10:05;8.00;99.90
4922;DHT22;16625;53.624;10.106;2023-04-29T06:13:16;8.20;99.90
4922;DHT22;16625;53.624;10.106;2023-04-29T06:16:07;8.40;1.00
4922;DHT22;16625;53.624;10.106;2023-04-29T06:18:56;8.40;99.90
4922;DHT22;16625;53.624;10.106;2023-04-29T06:21:28;8.90;99.90
4922;DHT22;16625;53.624;10.106;2023-04-29T06:24:01;9.00;99.90
4922;DHT22;16625;53.624;10.106;2023-04-29T06:26:28;9.20;99.90
4922;DHT22;16625;53.624;10.106;2023-04-29T06:28:59;9.50;99.90
4922;DHT22;16625;53.624;10.106;2023-04-29T06:31:41;9.60;99.90
4922;DHT22;16625;53.624;10.106;2023-04-29T06:37:36;9.70;1.00
4922;DHT22;16625;53.624;10.106;2023-04-29T06:40:14;9.80;99.90
4922;DHT22;16625;53.624;10.106;2023-04-29T06:42:59;9.80;1.00
4922;DHT22;16625;53.624;10.106;2023-04-29T06:46:04;9.60;99.90
4922;DHT22;16625;53.624;10.106;2023-04-29T06:48:57;9.70;1.00
4922;DHT22;16625;53.624;10.106;2023-04-29T06:51:48;9.60;1.00
4922;DHT22;16625;53.624;10.106;2023-04-29T06:58:05;9.70;1.00
4922;DHT22;16625;53.624;10.106;2023-04-29T07:04:52;9.90;99.90
4922;DHT22;16625;53.624;10.106;2023-04-29T07:17:52;10.10;1.00
4922;DHT22;16625;53.624;10.106;2023-04-29T07:20:52;10.20;99.90
4922;DHT22;16625;53.624;10.106;2023-04-29T07:23:46;10.30;90.40
4922;DHT22;16625;53.624;10.106;2023-04-29T07:47:50;10.90;99.90
4922;DHT22;16625;53.624;10.106;2023-04-29T07:50:17;10.90;99.90
4922;DHT22;16625;53.624;10.106;2023-04-29T07:52:59;10.90;99.90
4922;DHT22;16625;53.624;10.106;2023-04-29T07:55:27;11.10;99.90
4922;DHT22;16625;53.624;10.106;2023-04-29T07:57:56;11.30;99.90
4922;DHT22;16625;53.624;10.106;2023-04-29T08:00:30;11.40;99.90
4922;DHT22;16625;53.624;10.106;2023-04-29T08:02:59;11.60;99.90
4922;DHT22;16625;53.624;10.106;2023-04-29T08:05:43;11.70;90.40
4922;DHT22;16625;53.624;10.106;2023-04-29T08:08:30;11.70;93.00
4922;DHT22;16625;53.624;10.106;2023-04-29T08:10:59;11.80;32.40
4922;DHT22;16625;53.624;10.106;2023-04-29T08:13:30;11.90;1.20
4922;DHT22;16625;53.624;10.106;2023-04-29T08:16:23;11.90;1.00
4922;DHT22;16625;53.624;10.106;2023-04-29T08:19:04;12.10;1.00
4922;DHT22;16625;53.624;10.106;2023-04-29T08:21:35;12.20;1.00
4922;DHT22;16625;53.624;10.106;2023-04-29T08:24:07;12.20;1.00
4922;DHT22;16625;53.624;10.106;2023-04-29T08:26:34;12.20;1.00
4922;DHT22;16625;53.624;10.106;2023-04-29T08:29:07;12.40;1.00
4922;DHT22;16625;53.624;10.106;2023-04-29T08:31:50;12.50;1.00
4922;DHT22;16625;53.624;10.106;2023-04-29T08:34:22;12.50;1.00
4922;DHT22;16625;53.624;10.106;2023-04-29T08:36:49;12.50;1.00
4922;DHT22;16625;53.624;10.106;2023-04-29T08:39:17;12.40;1.00
4922;DHT22;16625;53.624;10.106;2023-04-29T15:49:58;14.10;99.90
4922;DHT22;16625;53.624;10.106;2023-04-29T15:52:25;14.00;99.90
4922;DHT22;16625;53.624;10.106;2023-04-29T15:54:52;14.20;99.90
4922;DHT22;16625;53.624;10.106;2023-04-29T15:57:24;14.30;99.90
4922;DHT22;16625;53.624;10.106;2023-04-29T15:59:55;14.40;99.90
4922;DHT22;16625;53.624;10.106;2023-04-29T16:02:24;14.10;99.90
4922;DHT22;16625;53.624;10.106;2023-04-29T16:04:51;13.80;99.90
4922;DHT22;16625;53.624;10.106;2023-04-29T16:07:22;13.80;99.90
4922;DHT22;16625;53.624;10.106;2023-04-29T16:09:49;13.70;99.90
4922;DHT22;16625;53.624;10.106;2023-04-29T16:12:16;13.50;99.90
4922;DHT22;16625;53.624;10.106;2023-04-29T16:14:43;13.50;99.90
4922;DHT22;16625;53.624;10.106;2023-04-29T16:17:14;13.80;99.90
4922;DHT22;16625;53.624;10.106;2023-04-29T16:19:41;14.00;99.90
4922;DHT22;16625;53.624;10.106;2023-04-29T16:22:09;14.40;99.90
4922;DHT22;16625;53.624;10.106;2023-04-29T16:24:38;14.50;99.90
4922;DHT22;16625;53.624;10.106;2023-04-29T16:27:05;15.20;99.90
4922;DHT22;16625;53.624;10.106;2023-04-29T16:29:32;15.80;99.90
4922;DHT22;16625;53.624;10.106;2023-04-29T16:31:59;15.80;99.90
4922;DHT22;16625;53.624;10.106;2023-04-29T16:34:26;15.80;99.90
4922;DHT22;16625;53.624;10.106;2023-04-29T16:36:53;15.70;99.90
4922;DHT22;16625;53.624;10.106;2023-04-29T16:39:22;15.40;99.90
4922;DHT22;16625;53.624;10.106;2023-04-29T16:41:51;14.50;99.90
4922;DHT22;16625;53.624;10.106;2023-04-29T16:44:24;13.80;99.90
4922;DHT22;16625;53.624;10.106;2023-04-29T16:47:10;13.40;99.90
4922;DHT22;16625;53.624;10.106;2023-04-29T16:49:37;14.10;99.90
4922;DHT22;16625;53.624;10.106;2023-04-29T16:52:05;14.60;99.90
4922;DHT22;16625;53.624;10.106;2023-04-29T16:54:32;14.40;99.90
4922;DHT22;16625;53.624;10.106;2023-04-29T16:57:01;14.60;99.90
4922;DHT22;16625;53.624;10.106;2023-04-29T16:59:29;14.60;99.90
4922;DHT22;16625;53.624;10.106;2023-04-29T17:01:58;14.30;99.90
4922;DHT22;16625;53.624;10.106;2023-04-29T17:04:27;14.60;99.90
4922;DHT22;16625;53.624;10.106;2023-04-29T17:06:57;15.40;99.90
4922;DHT22;16625;53.624;10.106;2023-04-29T17:09:56;15.50;99.90
4922;DHT22;16625;53.624;10.106;2023-04-29T17:12:50;15.90;99.90
4922;DHT22;16625;53.624;10.106;2023-04-29T18:20:51;10.00;99.90
4922;DHT22;16625;53.624;10.106;2023-04-29T18:23:33;10.00;99.90
4922;DHT22;16625;53.624;10.106;2023-04-29T18:29:53;9.80;99.90
4922;DHT22;16625;53.624;10.106;2023-04-29T18:33:10;9.70;99.90
